Time;durP1;ratioP1;P1;durP2;ratioP2;P2;SDS_P1;SDS_P2;PMS_P1;PMS_P2;Temp;Humidity;BMP_temperature;BMP_pressure;BME280_temperature;BME280_humidity;BME280_pressure;Samples;Min_cycle;Max_cycle;Signal;HPM_P1;HPM_P2
2023/07/22 00:02:22;;;;;;;25.73;7.50;;;27.50;49.50;;;;;;5038126;28;20199;-67
2023/07/22 00:04:49;;;;;;;31.47;7.97;;;27.50;49.50;;;;;;5034264;28;20274;-73
2023/07/22 00:07:16;;;;;;;34.40;7.90;;;27.50;49.50;;;;;;5035351;28;20200;-67
2023/07/22 00:09:44;;;;;;;36.37;8.33;;;27.50;49.60;;;;;;5049368;28;20869;-66
2023/07/22 00:12:11;;;;;;;34.10;8.57;;;27.40;49.50;;;;;;5049392;28;20196;-70
2023/07/22 00:14:41;;;;;;;27.83;7.33;;;27.50;49.60;;;;;;5043683;28;20207;-73
2023/07/22 00:17:08;;;;;;;32.73;7.63;;;27.40;49.60;;;;;;5033174;28;20192;-69
2023/07/22 00:19:35;;;;;;;27.83;7.53;;;27.40;49.50;;;;;;5037657;28;20201;-67
2023/07/22 00:22:02;;;;;;;28.53;7.90;;;27.40;49.50;;;;;;5035585;28;20228;-68
2023/07/22 00:24:30;;;;;;;47.87;9.50;;;27.40;49.50;;;;;;5039981;28;20236;-66
2023/07/22 00:26:57;;;;;;;26.17;7.57;;;27.40;49.50;;;;;;5041476;28;20200;-69
2023/07/22 00:29:24;;;;;;;23.27;7.60;;;27.40;49.60;;;;;;5039742;28;20654;-69
2023/07/22 00:31:52;;;;;;;23.30;7.30;;;27.40;49.60;;;;;;5029199;28;20654;-72
2023/07/22 00:34:19;;;;;;;30.63;7.63;;;27.40;49.60;;;;;;5040333;28;20207;-71
2023/07/22 00:36:47;;;;;;;43.97;9.33;;;27.40;49.60;;;;;;5046728;28;20211;-74
2023/07/22 00:39:16;;;;;;;33.07;7.97;;;27.40;49.60;;;;;;5033299;28;20291;-74
2023/07/22 00:41:44;;;;;;;33.90;7.70;;;27.40;49.60;;;;;;5048936;28;20197;-71
2023/07/22 00:44:12;;;;;;;30.80;7.73;;;27.40;49.60;;;;;;5033777;28;20236;-72
2023/07/22 00:46:39;;;;;;;25.77;7.27;;;27.40;49.60;;;;;;5037028;28;20197;-72
2023/07/22 00:49:08;;;;;;;40.67;8.43;;;27.40;49.60;;;;;;5040850;28;20739;-71
2023/07/22 00:51:35;;;;;;;34.47;8.43;;;27.30;49.60;;;;;;5037008;28;20219;-73
2023/07/22 00:54:03;;;;;;;30.37;7.60;;;27.40;49.60;;;;;;5047263;28;20671;-73
2023/07/22 00:56:33;;;;;;;27.63;7.03;;;27.30;49.60;;;;;;5038059;28;20201;-73
2023/07/22 00:59:01;;;;;;;29.00;8.10;;;27.30;49.60;;;;;;5035689;28;20200;-71
2023/07/22 01:01:28;;;;;;;26.53;7.57;;;27.30;49.60;;;;;;5048574;28;20226;-66
2023/07/22 01:03:55;;;;;;;36.53;8.17;;;27.30;49.60;;;;;;5034774;28;20584;-67
2023/07/22 01:06:25;;;;;;;46.97;8.73;;;27.30;49.60;;;;;;5045489;28;20220;-66
2023/07/22 01:08:52;;;;;;;30.37;7.70;;;27.30;49.60;;;;;;5032457;28;20196;-66
2023/07/22 01:11:19;;;;;;;24.83;6.77;;;27.30;49.60;;;;;;5044124;28;20204;-66
2023/07/22 01:13:46;;;;;;;27.13;8.13;;;27.30;49.70;;;;;;5038919;28;20211;-67
2023/07/22 01:16:13;;;;;;;30.43;7.60;;;27.30;49.70;;;;;;5039251;28;20856;-68
2023/07/22 01:18:40;;;;;;;21.27;6.73;;;27.30;49.70;;;;;;5040147;28;20199;-68
2023/07/22 01:21:07;;;;;;;28.13;7.60;;;27.30;49.70;;;;;;5028565;28;20208;-66
2023/07/22 01:23:37;;;;;;;27.90;7.47;;;27.30;49.70;;;;;;5045754;28;20211;-72
2023/07/22 01:26:04;;;;;;;25.60;6.97;;;27.30;49.70;;;;;;5040179;28;20203;-68
2023/07/22 01:28:31;;;;;;;30.23;7.67;;;27.30;49.70;;;;;;5040432;28;20582;-69
2023/07/22 01:30:57;;;;;;;28.50;7.50;;;27.20;49.60;;;;;;5040042;28;20211;-67
2023/07/22 01:33:24;;;;;;;48.10;9.60;;;27.20;49.60;;;;;;5030310;28;20206;-68
2023/07/22 01:35:51;;;;;;;23.33;6.77;;;27.20;49.60;;;;;;5047890;28;20208;-67
2023/07/22 01:38:19;;;;;;;29.00;7.43;;;27.20;49.70;;;;;;5047321;28;20215;-69
2023/07/22 01:40:47;;;;;;;50.00;9.97;;;27.20;49.70;;;;;;5048684;28;20617;-71
2023/07/22 01:43:17;;;;;;;32.37;7.63;;;27.20;49.70;;;;;;5038952;28;20307;-73
2023/07/22 01:45:44;;;;;;;27.77;7.30;;;27.20;49.70;;;;;;5046685;28;20738;-72
2023/07/22 01:48:11;;;;;;;40.00;8.53;;;27.20;49.70;;;;;;5044151;28;20209;-74
2023/07/22 01:50:38;;;;;;;29.40;8.07;;;27.20;49.70;;;;;;5046831;28;20207;-71
2023/07/22 01:53:05;;;;;;;29.07;7.73;;;27.20;49.70;;;;;;5047607;28;20204;-73
2023/07/22 01:55:32;;;;;;;34.33;8.27;;;27.20;49.70;;;;;;5041300;28;20227;-74
2023/07/22 01:58:01;;;;;;;22.00;6.57;;;27.20;49.70;;;;;;5038914;28;20244;-74
2023/07/22 02:00:28;;;;;;;26.07;7.37;;;27.20;49.70;;;;;;5044846;28;20660;-70
2023/07/22 02:02:55;;;;;;;32.73;7.80;;;27.20;49.70;;;;;;5047829;28;20211;-67
2023/07/22 02:05:22;;;;;;;25.10;7.37;;;27.20;49.70;;;;;;5047137;28;20235;-68
2023/07/22 02:07:48;;;;;;;25.03;7.23;;;27.20;49.70;;;;;;5045828;28;20682;-67
2023/07/22 02:10:15;;;;;;;27.07;7.67;;;27.10;49.70;;;;;;5047467;28;20632;-68
2023/07/22 02:12:42;;;;;;;45.20;9.27;;;27.20;49.70;;;;;;5036828;28;20201;-67
2023/07/22 02:15:11;;;;;;;26.60;7.60;;;27.10;50.30;;;;;;5046173;28;20208;-72
2023/07/22 02:17:38;;;;;;;26.47;7.17;;;27.10;49.70;;;;;;5038218;28;20192;-67
2023/07/22 02:20:08;;;;;;;37.07;8.43;;;27.10;49.70;;;;;;5046424;28;20206;-69
2023/07/22 02:22:35;;;;;;;52.47;9.97;;;27.10;49.70;;;;;;5043033;28;20224;-66
2023/07/22 02:25:03;;;;;;;21.37;7.10;;;27.10;49.70;;;;;;5042235;28;20255;-66
2023/07/22 02:27:30;;;;;;;48.07;9.33;;;27.10;49.70;;;;;;5033342;28;20215;-67
2023/07/22 02:29:57;;;;;;;27.43;7.50;;;27.10;49.70;;;;;;5050736;28;20204;-67
2023/07/22 02:32:25;;;;;;;25.70;7.23;;;27.10;49.70;;;;;;5047849;28;20581;-66
2023/07/22 02:34:52;;;;;;;27.80;7.57;;;27.10;49.70;;;;;;5046702;28;20212;-67
2023/07/22 02:37:18;;;;;;;40.43;8.33;;;27.10;49.70;;;;;;5045541;28;20211;-67
2023/07/22 02:39:45;;;;;;;38.93;8.77;;;27.10;49.70;;;;;;5029203;28;20204;-67
2023/07/22 02:42:12;;;;;;;21.00;6.90;;;27.10;49.70;;;;;;5035153;28;20203;-66
2023/07/22 02:44:39;;;;;;;41.90;9.17;;;27.10;49.70;;;;;;5041882;28;20219;-67
2023/07/22 02:47:06;;;;;;;25.00;7.53;;;27.10;49.70;;;;;;5046466;28;20200;-66
2023/07/22 02:49:34;;;;;;;36.43;8.17;;;27.10;49.70;;;;;;5043616;28;20581;-66
2023/07/22 02:52:01;;;;;;;35.23;7.70;;;27.10;49.70;;;;;;5042727;28;20197;-67
2023/07/22 02:54:28;;;;;;;31.70;7.80;;;27.00;49.70;;;;;;5030403;28;20204;-69
2023/07/22 02:56:54;;;;;;;31.30;8.13;;;27.00;49.70;;;;;;5040600;28;20487;-67
2023/07/22 02:59:21;;;;;;;26.53;7.30;;;27.00;49.70;;;;;;5051600;28;20706;-66
2023/07/22 03:01:48;;;;;;;65.07;10.83;;;27.00;49.70;;;;;;5045969;28;20203;-67
2023/07/22 03:04:15;;;;;;;44.87;9.10;;;27.00;49.70;;;;;;5043086;28;20711;-69
2023/07/22 03:06:44;;;;;;;51.93;9.73;;;27.00;49.70;;;;;;5047784;28;20201;-67
2023/07/22 03:09:11;;;;;;;41.07;8.70;;;27.00;49.70;;;;;;5056875;28;20246;-68
2023/07/22 03:11:38;;;;;;;26.83;7.13;;;27.00;49.70;;;;;;5051403;28;20275;-68
2023/07/22 03:14:05;;;;;;;30.90;8.30;;;27.00;49.70;;;;;;5047843;28;20204;-67
2023/07/22 03:16:32;;;;;;;36.47;8.03;;;27.00;49.70;;;;;;5031097;28;20212;-67
2023/07/22 03:18:59;;;;;;;42.83;8.37;;;27.00;49.70;;;;;;5053853;28;20694;-66
2023/07/22 03:21:26;;;;;;;35.83;8.03;;;27.00;49.70;;;;;;5032330;28;20564;-68
2023/07/22 03:23:54;;;;;;;30.73;7.33;;;26.90;49.70;;;;;;5050620;28;20203;-67
2023/07/22 03:26:21;;;;;;;31.70;7.97;;;27.00;49.70;;;;;;5051427;28;20600;-66
2023/07/22 03:28:48;;;;;;;44.20;8.77;;;27.00;49.80;;;;;;5053086;28;20568;-69
2023/07/22 03:31:15;;;;;;;28.43;7.13;;;27.00;49.80;;;;;;5049454;28;20208;-66
2023/07/22 03:33:45;;;;;;;23.73;6.77;;;27.00;49.80;;;;;;5049829;28;20208;-67
2023/07/22 03:36:12;;;;;;;39.93;8.43;;;26.90;49.80;;;;;;5030513;28;20215;-70
2023/07/22 03:38:39;;;;;;;30.53;7.53;;;26.90;49.80;;;;;;5049633;28;20212;-68
2023/07/22 03:41:08;;;;;;;27.87;7.17;;;26.90;49.80;;;;;;5045951;28;20259;-66
2023/07/22 03:43:35;;;;;;;30.27;7.77;;;26.90;49.80;;;;;;5049086;28;20205;-67
2023/07/22 03:46:02;;;;;;;24.50;7.43;;;27.00;49.80;;;;;;5039524;28;20228;-67
2023/07/22 03:48:29;;;;;;;26.20;6.77;;;26.90;49.80;;;;;;5050191;28;20202;-67
2023/07/22 03:50:56;;;;;;;42.17;8.50;;;26.90;49.90;;;;;;5043568;28;20207;-67
2023/07/22 03:53:23;;;;;;;34.63;8.13;;;26.90;49.80;;;;;;5049952;28;20192;-67
2023/07/22 03:55:49;;;;;;;23.67;7.00;;;26.90;49.80;;;;;;5039139;28;20645;-67
2023/07/22 03:58:18;;;;;;;38.93;8.23;;;26.90;50.40;;;;;;5043394;28;20188;-67
2023/07/22 04:00:49;;;;;;;31.13;7.83;;;26.90;49.80;;;;;;5034814;28;20733;-67
2023/07/22 04:03:16;;;;;;;31.10;7.83;;;26.90;49.80;;;;;;5032309;28;20208;-66
2023/07/22 04:05:43;;;;;;;22.93;6.53;;;26.90;49.80;;;;;;5040043;28;20290;-66
2023/07/22 04:08:10;;;;;;;29.70;7.40;;;26.90;49.90;;;;;;5041984;28;20234;-67
2023/07/22 04:10:37;;;;;;;32.20;7.57;;;26.90;49.90;;;;;;5053510;28;20208;-66
2023/07/22 04:13:04;;;;;;;28.87;6.97;;;26.90;49.90;;;;;;5041312;28;20219;-67
2023/07/22 04:15:32;;;;;;;26.30;6.63;;;26.90;49.90;;;;;;5049694;28;20207;-67
2023/07/22 04:17:59;;;;;;;44.17;8.70;;;26.80;49.80;;;;;;5042660;28;20201;-68
2023/07/22 04:20:26;;;;;;;34.50;7.93;;;26.80;49.90;;;;;;5047785;28;20210;-68
2023/07/22 04:22:53;;;;;;;33.70;7.57;;;26.80;49.90;;;;;;5038860;28;20231;-72
2023/07/22 04:25:20;;;;;;;38.43;7.97;;;26.80;49.90;;;;;;5043278;28;20228;-72
2023/07/22 04:27:46;;;;;;;29.50;6.90;;;26.80;49.90;;;;;;5033895;28;20533;-69
2023/07/22 04:30:20;;;;;;;39.80;8.17;;;26.80;49.90;;;;;;5050495;28;20237;-72
2023/07/22 04:32:49;;;;;;;31.30;7.83;;;26.80;49.90;;;;;;5048887;28;20565;-71
2023/07/22 04:35:17;;;;;;;29.93;7.33;;;26.80;49.90;;;;;;5050103;28;20447;-72
2023/07/22 04:37:43;;;;;;;43.87;8.23;;;26.80;49.90;;;;;;5049030;28;20243;-71
2023/07/22 04:40:14;;;;;;;27.67;7.30;;;26.80;49.90;;;;;;5039569;28;20204;-67
2023/07/22 04:42:41;;;;;;;22.47;6.37;;;26.80;49.90;;;;;;5050616;28;20242;-68
2023/07/22 04:45:10;;;;;;;28.73;6.97;;;26.80;49.90;;;;;;5049868;28;20222;-70
2023/07/22 04:47:37;;;;;;;31.00;7.50;;;26.80;49.90;;;;;;5032967;28;20529;-66
2023/07/22 04:50:08;;;;;;;34.03;7.53;;;26.60;50.10;;;;;;5030337;28;20557;-66
2023/07/22 04:52:35;;;;;;;27.73;7.03;;;26.70;50.20;;;;;;5029619;28;20201;-72
2023/07/22 04:55:08;;;;;;;27.00;6.77;;;26.70;50.10;;;;;;5033555;28;20208;-69
2023/07/22 04:57:35;;;;;;;54.53;9.13;;;26.70;50.00;;;;;;5039252;28;20208;-67
2023/07/22 05:00:04;;;;;;;29.87;7.07;;;26.70;50.00;;;;;;5034076;28;20201;-66
2023/07/22 05:02:31;;;;;;;28.10;7.00;;;26.80;50.00;;;;;;5038660;28;20250;-66
2023/07/22 05:04:58;;;;;;;25.23;7.23;;;26.80;50.00;;;;;;5037326;28;20196;-67
2023/07/22 05:07:26;;;;;;;27.20;7.10;;;26.80;50.00;;;;;;5044174;28;20557;-65
2023/07/22 05:09:53;;;;;;;28.37;7.33;;;26.80;50.00;;;;;;5044045;28;20752;-66
2023/07/22 05:12:20;;;;;;;30.17;7.63;;;26.80;50.00;;;;;;5029868;28;20205;-66
2023/07/22 05:14:47;;;;;;;27.17;7.00;;;26.80;50.00;;;;;;5028852;28;20759;-66
2023/07/22 05:17:14;;;;;;;26.90;7.17;;;26.80;50.00;;;;;;5039114;28;20197;-65
2023/07/22 05:19:40;;;;;;;38.03;7.83;;;26.80;50.00;;;;;;5039545;28;20196;-66
2023/07/22 05:22:08;;;;;;;28.57;7.03;;;26.80;50.00;;;;;;5047223;28;20390;-71
2023/07/22 05:24:36;;;;;;;32.37;7.57;;;26.80;50.00;;;;;;5032580;28;20250;-66
2023/07/22 05:27:03;;;;;;;27.63;7.10;;;26.80;50.00;;;;;;5048867;28;20231;-66
2023/07/22 05:29:30;;;;;;;28.13;6.87;;;26.80;50.00;;;;;;5049314;28;20208;-67
2023/07/22 05:31:57;;;;;;;46.73;8.67;;;26.80;50.00;;;;;;5042950;28;20210;-66
2023/07/22 05:34:24;;;;;;;27.27;6.70;;;26.80;50.00;;;;;;5029014;28;20208;-66
2023/07/22 05:36:51;;;;;;;46.93;8.50;;;26.70;49.90;;;;;;5033329;28;20216;-66
2023/07/22 05:39:18;;;;;;;44.00;8.57;;;26.80;50.00;;;;;;5028382;28;20712;-66
2023/07/22 05:41:46;;;;;;;41.10;7.83;;;26.70;50.00;;;;;;5030696;28;20189;-66
2023/07/22 05:44:13;;;;;;;44.73;8.30;;;26.80;50.00;;;;;;5044114;28;20207;-66
2023/07/22 05:46:40;;;;;;;38.80;8.03;;;26.80;50.00;;;;;;5031053;28;20279;-65
2023/07/22 05:49:07;;;;;;;22.93;6.20;;;26.70;50.00;;;;;;5042215;28;20664;-65
2023/07/22 05:51:34;;;;;;;44.27;8.10;;;26.80;50.00;;;;;;5046428;28;20200;-65
2023/07/22 05:54:01;;;;;;;27.07;7.27;;;26.80;50.00;;;;;;5046207;28;20196;-66
2023/07/22 05:56:28;;;;;;;46.23;8.23;;;26.70;50.00;;;;;;5034854;28;20228;-66
2023/07/22 05:58:56;;;;;;;45.80;8.23;;;26.80;50.00;;;;;;5044647;28;20208;-67
2023/07/22 06:01:24;;;;;;;26.00;6.17;;;26.80;50.00;;;;;;5039390;28;20193;-66
2023/07/22 06:03:51;;;;;;;34.17;7.30;;;26.80;50.00;;;;;;5045679;28;20195;-66
2023/07/22 06:06:18;;;;;;;43.87;7.97;;;26.80;50.00;;;;;;5044084;28;20706;-73
2023/07/22 06:08:45;;;;;;;36.97;7.63;;;26.80;50.00;;;;;;5037969;28;20204;-68
2023/07/22 06:11:11;;;;;;;33.53;7.13;;;26.80;50.30;;;;;;5029109;28;20203;-65
2023/07/22 06:13:38;;;;;;;36.60;6.70;;;26.80;50.10;;;;;;5027928;28;20204;-66
2023/07/22 06:16:07;;;;;;;39.20;7.67;;;26.80;50.10;;;;;;5041081;28;20210;-66
2023/07/22 06:18:33;;;;;;;23.07;6.20;;;26.80;50.10;;;;;;5044651;28;20200;-69
2023/07/22 06:21:00;;;;;;;25.20;6.50;;;26.80;50.10;;;;;;5040448;28;20556;-65
2023/07/22 06:23:27;;;;;;;47.27;8.07;;;26.80;50.10;;;;;;5054394;28;20195;-69
2023/07/22 06:25:54;;;;;;;26.80;6.63;;;26.80;50.40;;;;;;5044182;28;20708;-69
2023/07/22 06:28:21;;;;;;;33.93;7.50;;;26.80;50.10;;;;;;5031335;28;20200;-67
2023/07/22 06:30:48;;;;;;;32.40;6.93;;;26.80;50.10;;;;;;5032527;28;20201;-66
2023/07/22 06:33:16;;;;;;;38.47;7.20;;;26.80;50.10;;;;;;5035675;28;20200;-66
2023/07/22 06:35:43;;;;;;;20.30;5.40;;;26.80;50.10;;;;;;5040364;28;20208;-67
2023/07/22 06:38:10;;;;;;;30.97;6.40;;;26.80;50.20;;;;;;5047079;28;20219;-68
2023/07/22 06:40:37;;;;;;;23.60;5.57;;;26.80;50.20;;;;;;5030372;28;20689;-65
2023/07/22 06:43:05;;;;;;;51.23;8.50;;;26.80;50.20;;;;;;5037354;28;20391;-66
2023/07/22 06:45:32;;;;;;;36.13;7.30;;;26.80;50.20;;;;;;5046318;28;20201;-68
2023/07/22 06:47:59;;;;;;;32.50;6.53;;;26.80;50.20;;;;;;5046214;28;20215;-65
2023/07/22 06:50:28;;;;;;;26.80;6.40;;;26.80;50.20;;;;;;5046664;28;20294;-66
2023/07/22 06:52:54;;;;;;;29.97;6.50;;;26.80;50.20;;;;;;5039515;28;20206;-66
2023/07/22 06:55:21;;;;;;;39.27;7.57;;;26.90;50.30;;;;;;5039987;28;20714;-65
2023/07/22 06:57:49;;;;;;;23.50;6.20;;;26.90;50.30;;;;;;5032545;28;20658;-66
2023/07/22 07:00:16;;;;;;;25.30;5.80;;;26.90;50.30;;;;;;5045653;28;20195;-66
2023/07/22 07:02:43;;;;;;;27.73;6.60;;;26.80;50.20;;;;;;5046685;28;20219;-66
2023/07/22 07:05:10;;;;;;;23.37;6.33;;;26.90;50.30;;;;;;5047246;28;20208;-66
2023/07/22 07:07:39;;;;;;;46.63;8.07;;;26.90;50.30;;;;;;5044211;28;20240;-67
2023/07/22 07:10:07;;;;;;;33.20;6.23;;;26.90;50.30;;;;;;5027541;28;20218;-65
2023/07/22 07:12:33;;;;;;;43.47;7.60;;;27.00;50.30;;;;;;5030883;28;20227;-65
2023/07/22 07:15:01;;;;;;;21.43;5.60;;;26.90;50.30;;;;;;5030527;28;20208;-65
2023/07/22 07:17:28;;;;;;;41.23;7.57;;;26.90;50.30;;;;;;5042877;28;20198;-66
2023/07/22 07:19:55;;;;;;;34.53;6.33;;;26.90;50.30;;;;;;5050022;28;20254;-65
2023/07/22 07:22:22;;;;;;;27.73;6.20;;;26.90;50.30;;;;;;5037652;28;20231;-65
2023/07/22 07:24:50;;;;;;;28.17;5.90;;;27.00;50.40;;;;;;5032865;28;20300;-74
2023/07/22 07:27:17;;;;;;;65.73;9.90;;;27.00;50.30;;;;;;5042914;28;20216;-76
2023/07/22 07:29:44;;;;;;;45.53;7.70;;;27.00;50.30;;;;;;5036856;28;20212;-75
2023/07/22 07:32:11;;;;;;;34.83;6.57;;;27.00;50.30;;;;;;5029109;28;20539;-70
2023/07/22 07:34:38;;;;;;;29.03;6.27;;;27.00;50.30;;;;;;5029360;28;20211;-76
2023/07/22 07:37:05;;;;;;;47.67;8.03;;;27.00;50.40;;;;;;5025967;28;20212;-74
2023/07/22 07:39:32;;;;;;;18.23;5.37;;;27.00;50.30;;;;;;5045335;28;20200;-65
2023/07/22 07:42:00;;;;;;;30.80;6.17;;;27.00;50.40;;;;;;5036070;28;20263;-73
2023/07/22 07:44:27;;;;;;;25.10;5.73;;;27.00;50.40;;;;;;5040431;28;20231;-65
2023/07/22 07:46:54;;;;;;;26.10;6.20;;;27.00;50.40;;;;;;5038638;28;20719;-66
2023/07/22 07:49:21;;;;;;;24.00;5.50;;;27.00;50.40;;;;;;5030452;28;20205;-65
2023/07/22 07:51:48;;;;;;;24.07;5.87;;;27.10;50.50;;;;;;5030274;28;20205;-66
2023/07/22 07:54:15;;;;;;;41.50;7.83;;;27.10;50.50;;;;;;5040020;28;20656;-76
2023/07/22 07:56:42;;;;;;;28.93;6.43;;;27.10;50.50;;;;;;5041754;28;20200;-75
2023/07/22 07:59:10;;;;;;;31.07;6.57;;;27.10;50.50;;;;;;5043791;28;20633;-74
2023/07/22 08:01:41;;;;;;;24.73;6.30;;;27.10;50.50;;;;;;5045004;28;20857;-76
2023/07/22 08:04:08;;;;;;;29.50;6.57;;;27.10;50.50;;;;;;5050065;28;20960;-73
2023/07/22 08:06:36;;;;;;;31.93;6.57;;;27.10;50.50;;;;;;5042247;28;20242;-74
2023/07/22 08:09:05;;;;;;;27.43;6.13;;;27.20;50.50;;;;;;5049717;28;20861;-75
2023/07/22 08:11:32;;;;;;;34.03;6.63;;;27.20;50.50;;;;;;5040125;28;20212;-75
2023/07/22 08:13:59;;;;;;;24.93;5.63;;;27.20;50.50;;;;;;5038786;28;20196;-75
2023/07/22 08:16:29;;;;;;;26.30;5.73;;;27.20;50.50;;;;;;5038947;28;20201;-75
2023/07/22 08:18:56;;;;;;;29.07;6.20;;;27.20;50.50;;;;;;5030250;28;20205;-76
2023/07/22 08:21:23;;;;;;;23.87;5.83;;;27.20;50.40;;;;;;5029712;28;20229;-74
2023/07/22 08:23:50;;;;;;;26.53;5.83;;;27.30;50.60;;;;;;5029745;28;20560;-67
2023/07/22 08:26:20;;;;;;;28.77;5.87;;;27.30;50.60;;;;;;5038571;28;20216;-65
2023/07/22 08:28:47;;;;;;;27.50;6.03;;;27.30;50.60;;;;;;5047513;28;20684;-68
2023/07/22 08:31:14;;;;;;;30.70;6.17;;;27.30;50.60;;;;;;5045231;28;20225;-66
2023/07/22 08:33:42;;;;;;;26.23;5.87;;;27.30;50.60;;;;;;5039250;28;20204;-66
2023/07/22 08:36:09;;;;;;;30.57;6.27;;;27.30;50.60;;;;;;5037839;28;20744;-66
2023/07/22 08:38:36;;;;;;;29.43;6.07;;;27.30;50.60;;;;;;5042381;28;20208;-65
2023/07/22 08:41:04;;;;;;;22.50;5.73;;;27.30;50.60;;;;;;5049724;28;20982;-66
2023/07/22 08:43:31;;;;;;;29.50;6.27;;;27.40;50.60;;;;;;5042618;28;20208;-65
2023/07/22 08:46:03;;;;;;;19.40;5.30;;;27.40;50.60;;;;;;5048310;28;20234;-65
2023/07/22 08:48:32;;;;;;;35.33;6.37;;;27.40;50.70;;;;;;5049350;28;20230;-65
2023/07/22 08:51:06;;;;;;;32.90;6.63;;;27.40;50.60;;;;;;5049697;28;20254;-66
2023/07/22 08:53:33;;;;;;;44.97;7.47;;;27.50;50.70;;;;;;5036089;28;20299;-68
2023/07/22 08:56:00;;;;;;;29.90;6.27;;;27.50;50.70;;;;;;5043925;28;20197;-66
2023/07/22 08:58:29;;;;;;;39.10;7.10;;;27.50;50.70;;;;;;5030106;28;20672;-65
2023/07/22 09:00:57;;;;;;;39.57;7.20;;;27.50;50.70;;;;;;5029130;28;20204;-65
2023/07/22 09:03:25;;;;;;;29.30;6.07;;;27.50;50.70;;;;;;5031714;28;20207;-68
2023/07/22 09:05:53;;;;;;;35.07;6.77;;;27.60;50.70;;;;;;5029584;28;20296;-66
2023/07/22 09:08:21;;;;;;;26.77;5.67;;;27.60;50.70;;;;;;5043641;28;20232;-66
2023/07/22 09:10:49;;;;;;;31.93;6.10;;;27.60;50.60;;;;;;5043146;28;20207;-69
2023/07/22 09:13:16;;;;;;;27.80;6.07;;;27.60;50.60;;;;;;5049004;28;20216;-66
2023/07/22 09:15:46;;;;;;;29.33;5.97;;;27.70;50.70;;;;;;5042417;28;20205;-66
2023/07/22 09:18:15;;;;;;;60.30;9.43;;;27.60;50.60;;;;;;5037014;28;20200;-71
2023/07/22 09:20:43;;;;;;;32.27;8.10;;;27.70;50.60;;;;;;5039719;28;20259;-67
2023/07/22 09:23:10;;;;;;;40.93;9.07;;;27.70;50.70;;;;;;5041341;28;20307;-68
2023/07/22 09:25:40;;;;;;;54.30;9.60;;;27.70;50.70;;;;;;5032983;28;20240;-64
2023/07/22 09:28:07;;;;;;;60.53;9.73;;;27.70;50.70;;;;;;5027136;28;20233;-66
2023/07/22 09:30:35;;;;;;;28.40;6.27;;;27.60;50.60;;;;;;5058427;28;20203;-65
2023/07/22 09:33:03;;;;;;;33.53;6.90;;;27.70;50.60;;;;;;5065556;28;20532;-67
2023/07/22 09:35:31;;;;;;;20.03;5.63;;;27.70;50.60;;;;;;5068889;28;20228;-66
2023/07/22 09:38:00;;;;;;;27.83;6.53;;;27.80;50.60;;;;;;5031395;28;20213;-65
2023/07/22 09:40:28;;;;;;;37.27;7.00;;;27.80;50.60;;;;;;5029713;28;20228;-67
2023/07/22 09:43:01;;;;;;;26.63;6.00;;;27.80;50.60;;;;;;5029037;28;20209;-77
2023/07/22 09:45:31;;;;;;;33.97;6.70;;;27.80;50.60;;;;;;5029247;28;20282;-65
2023/07/22 09:47:58;;;;;;;30.13;6.70;;;27.80;50.60;;;;;;5054536;28;20676;-69
2023/07/22 09:50:27;;;;;;;28.73;6.27;;;27.80;50.50;;;;;;5067138;28;20207;-65
2023/07/22 09:52:55;;;;;;;30.10;6.37;;;27.80;50.50;;;;;;5066664;28;20581;-68
2023/07/22 09:55:24;;;;;;;29.00;6.07;;;27.80;50.50;;;;;;5028608;28;20205;-65
2023/07/22 09:57:53;;;;;;;25.60;5.83;;;27.80;50.40;;;;;;5033384;28;20239;-67
2023/07/22 10:00:25;;;;;;;29.30;6.33;;;27.80;50.40;;;;;;5048626;28;20236;-65
2023/07/22 10:02:53;;;;;;;34.47;6.67;;;27.80;50.40;;;;;;5039349;28;20231;-64
2023/07/22 10:05:20;;;;;;;25.07;5.77;;;27.80;50.40;;;;;;5043630;28;20635;-64
2023/07/22 10:07:51;;;;;;;28.80;6.77;;;27.80;50.40;;;;;;5045320;28;20286;-63
2023/07/22 10:10:19;;;;;;;29.17;6.13;;;27.70;50.30;;;;;;5029375;28;20258;-65
2023/07/22 10:12:47;;;;;;;35.93;6.57;;;27.70;50.40;;;;;;5028212;28;20196;-65
2023/07/22 10:15:15;;;;;;;26.67;6.10;;;27.70;50.40;;;;;;5027702;28;20209;-65
2023/07/22 10:17:44;;;;;;;32.07;6.53;;;27.70;50.40;;;;;;5032394;28;20214;-65
2023/07/22 10:20:14;;;;;;;28.10;5.83;;;27.70;50.50;;;;;;5040575;28;20208;-63
2023/07/22 10:22:44;;;;;;;22.63;5.40;;;27.70;50.60;;;;;;5042607;28;20251;-64
2023/07/22 10:25:12;;;;;;;50.10;7.87;;;27.70;50.50;;;;;;5043487;28;20203;-66
2023/07/22 10:27:41;;;;;;;26.13;5.93;;;27.70;50.50;;;;;;5036053;28;20220;-72
2023/07/22 10:30:10;;;;;;;32.60;6.33;;;27.70;50.60;;;;;;5036867;28;20293;-68
2023/07/22 10:32:38;;;;;;;25.53;5.57;;;27.70;50.60;;;;;;5044976;28;20291;-68
2023/07/22 10:35:10;;;;;;;24.43;5.57;;;27.70;50.60;;;;;;5028817;28;20207;-69
2023/07/22 10:37:38;;;;;;;32.40;6.73;;;27.60;50.50;;;;;;5030857;28;20219;-67
2023/07/22 10:40:27;;;;;;;26.57;6.17;;;27.70;50.50;;;;;;5046479;28;20199;-67
2023/07/22 10:42:58;;;;;;;21.63;5.40;;;27.70;50.50;;;;;;5061832;28;20759;-65
2023/07/22 10:45:27;;;;;;;32.53;6.57;;;27.70;50.50;;;;;;5047652;28;20209;-67
2023/07/22 10:48:02;;;;;;;25.70;5.67;;;27.70;50.60;;;;;;5027806;28;20645;-66
2023/07/22 10:50:41;;;;;;;22.67;5.37;;;27.70;50.50;;;;;;5028582;28;20212;-67
2023/07/22 10:53:11;;;;;;;27.10;6.13;;;27.60;50.50;;;;;;5051854;28;20282;-67
2023/07/22 10:56:05;;;;;;;30.70;6.50;;;27.60;50.50;;;;;;5034612;28;20209;-67
2023/07/22 10:58:33;;;;;;;32.43;6.40;;;27.60;50.50;;;;;;5027538;28;20301;-66
2023/07/22 11:01:27;;;;;;;41.80;7.23;;;27.60;50.60;;;;;;5029940;28;20930;-65
2023/07/22 11:04:15;;;;;;;21.70;5.27;;;27.70;50.80;;;;;;5047624;28;20620;-65
2023/07/22 11:06:55;;;;;;;31.57;6.17;;;27.70;51.00;;;;;;5035561;28;20207;-71
2023/07/22 11:09:39;;;;;;;25.40;6.07;;;27.70;51.20;;;;;;5046899;28;20207;-65
2023/07/22 11:12:07;;;;;;;23.60;5.33;;;27.70;51.50;;;;;;5034282;28;20665;-73
2023/07/22 11:14:35;;;;;;;27.27;5.53;;;27.80;51.60;;;;;;5037121;28;20200;-70
2023/07/22 11:17:04;;;;;;;26.27;5.70;;;27.90;51.70;;;;;;5035161;28;20617;-66
2023/07/22 11:19:32;;;;;;;24.33;5.67;;;28.00;51.70;;;;;;5044935;28;20204;-69
2023/07/22 11:22:01;;;;;;;31.90;6.37;;;28.20;51.60;;;;;;5044917;28;20231;-72
2023/07/22 11:24:28;;;;;;;22.80;5.53;;;28.30;51.40;;;;;;5048552;28;20207;-67
2023/07/22 11:26:55;;;;;;;33.10;6.13;;;28.50;51.30;;;;;;5036699;28;20197;-67
2023/07/22 11:29:23;;;;;;;32.03;6.00;;;28.60;51.10;;;;;;5039923;28;20203;-68
2023/07/22 11:31:51;;;;;;;33.40;6.30;;;28.70;50.90;;;;;;5070941;28;20209;-67
2023/07/22 11:34:19;;;;;;;28.83;5.97;;;28.70;50.70;;;;;;5055275;28;20232;-67
2023/07/22 11:36:47;;;;;;;35.50;6.93;;;28.80;50.60;;;;;;5054170;28;20203;-66
2023/07/22 11:39:17;;;;;;;31.27;6.20;;;28.90;50.50;;;;;;5069913;28;20203;-67
2023/07/22 11:41:45;;;;;;;29.37;6.13;;;28.90;50.30;;;;;;5030720;28;20278;-74
2023/07/22 11:44:14;;;;;;;17.80;4.83;;;28.90;50.20;;;;;;5040759;28;20196;-66
2023/07/22 11:46:53;;;;;;;28.60;6.17;;;28.90;50.20;;;;;;5070959;28;20199;-69
2023/07/22 11:49:25;;;;;;;25.33;5.63;;;28.90;50.00;;;;;;5071132;28;20210;-70
2023/07/22 11:51:52;;;;;;;25.03;5.57;;;28.90;50.00;;;;;;5039114;28;20212;-67
2023/07/22 11:54:21;;;;;;;32.30;6.17;;;28.90;50.00;;;;;;5033048;28;20215;-67
2023/07/22 11:56:48;;;;;;;33.97;6.10;;;28.90;50.00;;;;;;5049414;28;20648;-69
2023/07/22 11:59:15;;;;;;;28.63;5.90;;;28.80;50.00;;;;;;5050387;28;20211;-69
2023/07/22 12:01:46;;;;;;;20.50;4.93;;;28.80;50.10;;;;;;5050567;28;20204;-73
2023/07/22 12:04:14;;;;;;;30.40;5.87;;;28.80;50.20;;;;;;5050821;28;20197;-67
2023/07/22 12:06:42;;;;;;;28.00;5.73;;;28.80;50.30;;;;;;5044793;28;20645;-67
2023/07/22 12:09:10;;;;;;;22.47;5.33;;;28.80;50.40;;;;;;5029918;28;20238;-78
2023/07/22 12:11:38;;;;;;;29.77;5.83;;;28.90;50.50;;;;;;5030001;28;20201;-67
2023/07/22 12:14:10;;;;;;;30.00;6.40;;;29.00;50.40;;;;;;5042889;28;20201;-69
2023/07/22 12:16:38;;;;;;;22.73;5.37;;;29.00;50.30;;;;;;5050157;28;20223;-66
2023/07/22 12:19:05;;;;;;;27.37;5.83;;;29.10;50.20;;;;;;5057203;28;20210;-70
2023/07/22 12:21:33;;;;;;;19.33;5.33;;;29.10;50.10;;;;;;5069359;28;20226;-68
2023/07/22 12:24:00;;;;;;;24.77;5.40;;;29.10;49.90;;;;;;5050255;28;20291;-74
2023/07/22 12:26:27;;;;;;;27.47;5.50;;;29.10;49.80;;;;;;5049748;28;20204;-71
2023/07/22 12:28:55;;;;;;;27.33;6.27;;;29.10;49.80;;;;;;5050186;28;20216;-67
2023/07/22 12:31:22;;;;;;;35.30;6.23;;;29.10;49.70;;;;;;5040349;28;20203;-67
2023/07/22 12:33:49;;;;;;;32.37;6.00;;;29.10;49.70;;;;;;5029852;28;20185;-67
2023/07/22 12:36:16;;;;;;;35.50;6.50;;;29.00;49.70;;;;;;5046094;28;20313;-67
2023/07/22 12:38:43;;;;;;;28.57;5.53;;;29.00;49.80;;;;;;5069824;28;20215;-67
2023/07/22 12:41:10;;;;;;;27.17;5.50;;;29.00;49.90;;;;;;5053426;28;20204;-68